createdAt,value
2022-12-16T00:00:41.912Z,-5.59
2022-12-16T00:06:05.257Z,-5.60
2022-12-16T00:11:27.652Z,-5.44
2022-12-16T00:16:51.165Z,-5.63
2022-12-16T00:22:13.990Z,-5.34
2022-12-16T00:27:35.969Z,-5.66
2022-12-16T00:32:58.481Z,-5.56
2022-12-16T00:38:21.979Z,-5.48
2022-12-16T00:43:44.130Z,-5.42
2022-12-16T00:49:08.340Z,-5.51
2022-12-16T00:54:33.691Z,-5.60
2022-12-16T00:59:55.563Z,-5.47
2022-12-16T01:05:21.298Z,-5.26
2022-12-16T01:10:43.338Z,-5.33
2022-12-16T01:16:05.502Z,-5.22
2022-12-16T01:21:27.740Z,-5.25
2022-12-16T01:26:49.801Z,-5.20
2022-12-16T01:32:16.598Z,-5.29
2022-12-16T01:37:38.759Z,-5.22
2022-12-16T01:43:00.600Z,-5.14
2022-12-16T01:48:47.930Z,-5.12
2022-12-16T01:54:21.279Z,-5.09
2022-12-16T01:59:50.151Z,-5.23
2022-12-16T02:05:23.680Z,-5.09
2022-12-16T02:10:45.659Z,-5.01
2022-12-16T02:16:25.883Z,-5.01
2022-12-16T02:21:57.774Z,-4.97
2022-12-16T02:28:01.041Z,-5.06
2022-12-16T02:33:44.789Z,-4.92
2022-12-16T02:39:24.751Z,-5.17
2022-12-16T02:44:48.462Z,-4.89
2022-12-16T02:50:24.910Z,-5.01
2022-12-16T02:56:01.270Z,-4.77
2022-12-16T03:01:37.836Z,-4.76
2022-12-16T03:07:02.411Z,-5.02
2022-12-16T03:12:25.883Z,-4.94
2022-12-16T03:17:49.600Z,-4.71
2022-12-16T03:23:18.370Z,-4.69
2022-12-16T03:28:51.741Z,-4.65
2022-12-16T03:34:25.789Z,-4.77
2022-12-16T03:39:52.660Z,-4.58
2022-12-16T03:45:23.603Z,-4.56
2022-12-16T03:50:45.423Z,-4.56
2022-12-16T03:56:07.930Z,-4.55
2022-12-16T04:01:30.130Z,-4.54
2022-12-16T04:07:12.160Z,-4.57
2022-12-16T04:12:52.568Z,-4.49
2022-12-16T04:18:38.823Z,-4.62
2022-12-16T04:24:22.960Z,-4.61
2022-12-16T04:30:03.910Z,-4.60
2022-12-16T04:35:45.510Z,-4.55
2022-12-16T04:41:26.040Z,-4.57
2022-12-16T04:47:07.821Z,-4.59
2022-12-16T04:52:51.382Z,-4.50
2022-12-16T04:58:39.410Z,-4.43
2022-12-16T05:04:30.826Z,-4.48
2022-12-16T05:10:12.481Z,-4.47
2022-12-16T05:15:53.468Z,-4.51
2022-12-16T05:21:33.851Z,-4.34
2022-12-16T05:27:13.928Z,-4.31
2022-12-16T05:32:54.328Z,-4.35
2022-12-16T05:38:35.721Z,-4.30
2022-12-16T05:44:16.320Z,-4.34
2022-12-16T05:49:56.879Z,-4.24
2022-12-16T05:55:36.940Z,-4.19
2022-12-16T06:01:17.033Z,-4.22
2022-12-16T06:06:58.070Z,-4.20
2022-12-16T06:12:38.496Z,-4.11
2022-12-16T06:18:18.358Z,-4.10
2022-12-16T06:23:58.189Z,-4.02
2022-12-16T06:29:38.050Z,-3.99
2022-12-16T06:35:18.540Z,-3.95
2022-12-16T06:40:58.838Z,-3.88
2022-12-16T06:46:39.244Z,-3.89
2022-12-16T06:52:20.510Z,-3.78
2022-12-16T06:58:00.340Z,-3.68
2022-12-16T07:03:40.518Z,-3.64
2022-12-16T07:09:23.190Z,-3.54
2022-12-16T07:15:03.860Z,-3.50
2022-12-16T07:20:44.741Z,-3.46
2022-12-16T07:26:25.240Z,-3.41
2022-12-16T07:32:05.101Z,-3.37
2022-12-16T07:37:45.090Z,-3.34
2022-12-16T07:43:24.850Z,-3.25
2022-12-16T07:49:04.800Z,-3.19
2022-12-16T07:54:44.769Z,-3.10
2022-12-16T08:00:25.111Z,-3.04
2022-12-16T08:06:05.071Z,-3.06
2022-12-16T08:11:45.252Z,-2.98
2022-12-16T08:17:25.602Z,-3.00
2022-12-16T08:23:09.791Z,-3.05
2022-12-16T08:28:50.076Z,-3.02
2022-12-16T08:34:30.711Z,-2.93
2022-12-16T08:40:34.386Z,-2.85
2022-12-16T08:46:13.293Z,-2.69
2022-12-16T08:51:54.081Z,-2.75
2022-12-16T08:57:34.702Z,-2.72
2022-12-16T09:03:16.954Z,-2.66
2022-12-16T09:08:57.260Z,-2.54
2022-12-16T09:14:38.041Z,-2.45
2022-12-16T09:20:18.491Z,-2.51
2022-12-16T09:25:59.885Z,-2.51
2022-12-16T09:31:40.270Z,-2.53
2022-12-16T09:37:23.239Z,-2.57
2022-12-16T09:43:16.781Z,-2.59
2022-12-16T09:49:14.999Z,-2.68
2022-12-16T09:55:04.179Z,-2.76
2022-12-16T10:00:48.140Z,-2.80
2022-12-16T10:06:39.821Z,-2.87
2022-12-16T10:12:50.760Z,-2.98
2022-12-16T10:18:49.329Z,-3.19
2022-12-16T10:25:00.549Z,-3.13
2022-12-16T10:30:41.229Z,-3.36
2022-12-16T10:36:22.615Z,-3.28
2022-12-16T10:42:06.215Z,-3.27
2022-12-16T10:47:46.370Z,-3.36
2022-12-16T10:53:46.699Z,-3.43
2022-12-16T10:59:28.050Z,-3.61
2022-12-16T11:05:09.492Z,-3.63
2022-12-16T11:10:56.045Z,-3.66
2022-12-16T11:16:43.276Z,-3.74
2022-12-16T11:22:36.845Z,-3.84
2022-12-16T11:28:35.729Z,-3.84
2022-12-16T11:34:18.792Z,-3.88
2022-12-16T11:39:59.298Z,-3.91
2022-12-16T11:45:40.570Z,-3.95
2022-12-16T11:51:25.056Z,-3.97
2022-12-16T11:57:05.461Z,-4.01
2022-12-16T12:02:54.492Z,-4.09
2022-12-16T12:08:58.930Z,-4.18
2022-12-16T12:14:58.811Z,-4.11
2022-12-16T12:21:00.569Z,-4.16
2022-12-16T12:27:03.291Z,-4.25
2022-12-16T12:33:17.740Z,-4.31
2022-12-16T12:39:10.530Z,-4.23
2022-12-16T12:45:16.906Z,-4.28
2022-12-16T12:51:13.645Z,-4.44
2022-12-16T12:57:22.090Z,-4.53
2022-12-16T13:03:27.212Z,-4.44
2022-12-16T13:09:12.961Z,-4.48
2022-12-16T13:14:53.210Z,-4.52
2022-12-16T13:20:55.261Z,-4.59
2022-12-16T13:26:42.670Z,-4.74
2022-12-16T13:32:41.414Z,-4.69
2022-12-16T13:38:36.731Z,-4.67
2022-12-16T13:44:18.860Z,-4.71
2022-12-16T13:50:00.992Z,-4.76
2022-12-16T13:55:56.355Z,-4.79
2022-12-16T14:01:47.152Z,-4.89
2022-12-16T14:07:27.631Z,-4.91
2022-12-16T14:13:13.492Z,-4.85
2022-12-16T14:19:10.982Z,-4.99
2022-12-16T14:24:53.890Z,-5.02
2022-12-16T14:30:36.961Z,-4.95
2022-12-16T14:36:34.572Z,-4.94
2022-12-16T14:42:15.491Z,-5.00
2022-12-16T14:48:01.818Z,-5.02
2022-12-16T14:53:43.750Z,-4.97
2022-12-16T14:59:42.089Z,-5.07
2022-12-16T15:05:23.159Z,-5.12
2022-12-16T15:11:03.770Z,-5.19
2022-12-16T15:16:52.233Z,-5.04
2022-12-16T15:22:38.363Z,-5.17
2022-12-16T15:28:18.647Z,-5.21
2022-12-16T15:33:58.991Z,-5.16
2022-12-16T15:39:53.823Z,-5.11
2022-12-16T15:45:51.108Z,-5.11
2022-12-16T15:52:08.541Z,-5.13
2022-12-16T15:57:56.417Z,-5.22
2022-12-16T16:03:37.454Z,-5.09
2022-12-16T16:09:18.339Z,-5.05
2022-12-16T16:14:58.665Z,-5.20
2022-12-16T16:20:39.655Z,-5.11
2022-12-16T16:26:20.599Z,-5.13
2022-12-16T16:32:04.378Z,-5.12
2022-12-16T16:37:45.232Z,-5.02
2022-12-16T16:43:25.501Z,-5.03
2022-12-16T16:49:06.043Z,-5.16
2022-12-16T16:54:49.650Z,-5.00
2022-12-16T17:00:30.498Z,-4.97
2022-12-16T17:06:10.565Z,-5.07
2022-12-16T17:11:52.473Z,-5.18
2022-12-16T17:17:32.831Z,-4.98
2022-12-16T17:23:13.633Z,-5.12
2022-12-16T17:28:53.950Z,-4.95
2022-12-16T17:34:34.372Z,-4.92
2022-12-16T17:40:14.569Z,-5.06
2022-12-16T17:45:54.611Z,-5.05
2022-12-16T17:51:35.599Z,-4.95
2022-12-16T17:57:16.061Z,-4.91
2022-12-16T18:02:56.501Z,-4.96
2022-12-16T18:08:36.851Z,-4.90
2022-12-16T18:14:17.825Z,-4.96
2022-12-16T18:20:01.343Z,-4.90
2022-12-16T18:25:43.902Z,-5.05
2022-12-16T18:31:25.292Z,-4.97
2022-12-16T18:37:05.610Z,-5.16
2022-12-16T18:42:46.422Z,-4.97
2022-12-16T18:48:26.865Z,-5.09
2022-12-16T18:54:22.023Z,-5.02
2022-12-16T19:00:05.681Z,-5.08
2022-12-16T19:05:46.192Z,-5.05
2022-12-16T19:11:26.113Z,-5.01
2022-12-16T19:17:07.050Z,-5.15
2022-12-16T19:22:48.040Z,-5.09
2022-12-16T19:28:34.869Z,-4.96
2022-12-16T19:34:15.709Z,-5.04
2022-12-16T19:39:56.732Z,-4.99
2022-12-16T19:45:37.651Z,-5.08
2022-12-16T19:51:20.911Z,-5.10
2022-12-16T19:57:02.719Z,-5.19
2022-12-16T20:02:48.434Z,-5.21
2022-12-16T20:08:29.273Z,-5.09
2022-12-16T20:14:14.314Z,-5.16
2022-12-16T20:19:54.879Z,-5.15
2022-12-16T20:25:36.779Z,-5.00
2022-12-16T20:31:21.812Z,-5.04
2022-12-16T20:37:02.629Z,-5.09
2022-12-16T20:42:43.725Z,-5.12
2022-12-16T20:48:24.103Z,-5.11
2022-12-16T20:54:10.185Z,-5.05
2022-12-16T20:59:50.620Z,-5.12
2022-12-16T21:05:32.293Z,-5.15
2022-12-16T21:11:16.139Z,-5.14
2022-12-16T21:16:56.889Z,-5.33
2022-12-16T21:22:37.439Z,-5.32
2022-12-16T21:28:18.781Z,-5.31
2022-12-16T21:33:59.849Z,-5.35
2022-12-16T21:39:57.945Z,-5.19
2022-12-16T21:45:38.462Z,-5.19
2022-12-16T21:51:19.346Z,-5.21
2022-12-16T21:57:00.400Z,-5.09
2022-12-16T22:02:41.557Z,-5.11
2022-12-16T22:08:27.489Z,-5.27
2022-12-16T22:14:07.919Z,-5.14
2022-12-16T22:19:48.710Z,-5.16
2022-12-16T22:25:29.692Z,-5.06
2022-12-16T22:31:15.988Z,-5.06
2022-12-16T22:36:57.832Z,-5.07
2022-12-16T22:42:37.692Z,-5.24
2022-12-16T22:48:18.549Z,-5.19
2022-12-16T22:53:58.912Z,-5.20
2022-12-16T22:59:41.077Z,-5.24
2022-12-16T23:05:27.291Z,-5.08
2022-12-16T23:11:18.956Z,-5.16
2022-12-16T23:16:59.988Z,-5.11
2022-12-16T23:22:41.048Z,-5.10
2022-12-16T23:28:21.965Z,-5.06
2022-12-16T23:34:02.634Z,-5.14
2022-12-16T23:39:43.880Z,-5.14
2022-12-16T23:45:25.122Z,-5.14
2022-12-16T23:51:05.853Z,-5.12
2022-12-16T23:56:46.666Z,-5.21
